Time;durP1;ratioP1;P1;durP2;ratioP2;P2;SDS_P1;SDS_P2;PMS_P1;PMS_P2;Temp;Humidity;BMP_temperature;BMP_pressure;BME280_temperature;BME280_humidity;BME280_pressure;Samples;Min_cycle;Max_cycle;Signal;HPM_P1;HPM_P2
2023/05/18 00:01:13;;;;;;;9.83;4.70;;;;;;;5.49;100.00;94340.72;5029844;28;20071;-59
2023/05/18 00:03:40;;;;;;;9.18;4.65;;;;;;;5.50;100.00;94336.88;5031238;28;20045;-59
2023/05/18 00:06:08;;;;;;;10.95;4.65;;;;;;;5.44;100.00;94338.34;5030125;28;20486;-59
2023/05/18 00:08:36;;;;;;;8.75;4.43;;;;;;;5.44;100.00;94333.69;5041269;28;20041;-59
2023/05/18 00:11:04;;;;;;;10.63;4.43;;;;;;;5.40;100.00;94332.88;5047251;28;20044;-59
2023/05/18 00:13:31;;;;;;;11.83;4.60;;;;;;;5.40;100.00;94333.63;5030521;28;20539;-59
2023/05/18 00:15:58;;;;;;;11.25;4.50;;;;;;;5.39;100.00;94332.09;5029608;28;20045;-59
2023/05/18 00:18:26;;;;;;;9.63;4.80;;;;;;;5.42;100.00;94322.38;5030379;28;20037;-61
2023/05/18 00:20:57;;;;;;;18.20;9.77;;;;;;;5.39;100.00;94325.84;5030118;28;20044;-59
2023/05/18 00:23:31;;;;;;;12.05;5.28;;;;;;;5.40;100.00;94322.75;5030261;28;20041;-60
2023/05/18 00:26:00;;;;;;;12.87;5.40;;;;;;;5.34;100.00;94332.41;5029946;28;20486;-59
2023/05/18 00:28:27;;;;;;;9.98;4.55;;;;;;;5.32;100.00;94323.06;5030068;28;20044;-60
2023/05/18 00:30:55;;;;;;;9.38;4.60;;;;;;;5.34;100.00;94324.25;5029754;28;20053;-60
2023/05/18 00:33:22;;;;;;;11.00;4.70;;;;;;;5.30;100.00;94315.25;5038224;28;20041;-59
2023/05/18 00:35:49;;;;;;;10.05;4.68;;;;;;;5.31;100.00;94314.13;5030002;28;20052;-59
2023/05/18 00:38:16;;;;;;;9.73;4.83;;;;;;;5.29;100.00;94304.75;5046052;28;20155;-59
2023/05/18 00:40:43;;;;;;;9.73;4.47;;;;;;;5.27;100.00;94313.28;5050031;28;20036;-59
2023/05/18 00:43:10;;;;;;;10.98;5.25;;;;;;;5.30;100.00;94307.09;5029449;28;20483;-59
2023/05/18 00:45:37;;;;;;;10.60;4.28;;;;;;;5.33;100.00;94302.84;5028731;28;20045;-61
2023/05/18 00:48:04;;;;;;;32.92;17.13;;;;;;;5.37;100.00;94301.75;5041804;28;20347;-59
2023/05/18 00:50:31;;;;;;;11.33;5.07;;;;;;;5.35;100.00;94303.25;5030005;28;20040;-58
2023/05/18 00:52:58;;;;;;;10.45;4.50;;;;;;;5.32;100.00;94301.28;5029437;28;20046;-59
2023/05/18 00:55:27;;;;;;;9.32;4.30;;;;;;;5.28;100.00;94295.78;5028529;28;20064;-59
2023/05/18 00:57:56;;;;;;;12.05;4.40;;;;;;;5.32;100.00;94288.44;5029478;28;20444;-59
2023/05/18 01:00:23;;;;;;;9.20;4.38;;;;;;;5.31;100.00;94291.53;5029766;28;20037;-60
2023/05/18 01:02:50;;;;;;;9.17;4.63;;;;;;;5.27;100.00;94294.25;5039012;28;20040;-60
2023/05/18 01:05:18;;;;;;;9.25;4.30;;;;;;;5.23;100.00;94290.69;5032318;28;20592;-61
2023/05/18 01:07:46;;;;;;;10.35;4.50;;;;;;;5.24;100.00;94288.75;5029696;28;20366;-58
2023/05/18 01:10:16;;;;;;;9.15;4.47;;;;;;;5.23;100.00;94287.19;5029028;28;20037;-61
2023/05/18 01:13:00;;;;;;;10.23;4.50;;;;;;;5.18;100.00;94289.06;5046982;28;20045;-61
2023/05/18 01:15:39;;;;;;;10.33;4.40;;;;;;;5.19;100.00;94290.66;5039349;28;20037;-60
2023/05/18 01:18:21;;;;;;;10.90;4.30;;;;;;;5.14;100.00;94288.25;5033081;28;20040;-63
2023/05/18 01:21:12;;;;;;;20.80;9.75;;;;;;;5.19;100.00;94293.38;5038144;28;20126;-59
2023/05/18 01:23:58;;;;;;;11.40;4.80;;;;;;;5.24;100.00;94292.25;5042812;28;20921;-60
2023/05/18 01:26:36;;;;;;;8.90;4.28;;;;;;;5.21;100.00;94282.09;5047259;28;22037;-59
2023/05/18 01:29:08;;;;;;;7.97;4.30;;;;;;;5.18;100.00;94274.69;5047650;28;20040;-58
2023/05/18 01:31:36;;;;;;;8.98;4.55;;;;;;;5.22;100.00;94277.47;5048467;28;20051;-60
2023/05/18 01:34:02;;;;;;;9.85;4.25;;;;;;;5.20;100.00;94269.66;5048085;28;20533;-60
2023/05/18 01:36:30;;;;;;;9.90;4.38;;;;;;;5.17;100.00;94279.38;5047976;28;20044;-59
2023/05/18 01:39:00;;;;;;;9.65;4.50;;;;;;;5.14;100.00;94271.94;5059559;28;20052;-58
2023/05/18 01:41:29;;;;;;;9.53;4.33;;;;;;;5.20;100.00;94281.31;5063725;28;20043;-59
2023/05/18 01:44:17;;;;;;;9.15;4.30;;;;;;;5.18;100.00;94275.47;5047956;28;20037;-58
2023/05/18 01:47:09;;;;;;;7.82;3.97;;;;;;;5.20;100.00;94267.72;5032607;28;20045;-59
2023/05/18 01:49:53;;;;;;;9.77;4.20;;;;;;;5.17;100.00;94264.97;5041840;28;20592;-59
2023/05/18 01:52:25;;;;;;;9.50;4.18;;;;;;;5.22;100.00;94264.63;5027226;28;20041;-59
2023/05/18 01:54:56;;;;;;;8.60;3.97;;;;;;;5.19;100.00;94262.66;5039755;28;20048;-59
2023/05/18 01:57:26;;;;;;;9.73;4.38;;;;;;;5.22;100.00;94255.69;5028388;28;20075;-59
2023/05/18 01:59:54;;;;;;;10.75;4.10;;;;;;;5.24;100.00;94258.81;5027486;28;20048;-59
2023/05/18 02:02:21;;;;;;;9.93;4.28;;;;;;;5.20;100.00;94251.41;5027895;28;20037;-60
2023/05/18 02:04:48;;;;;;;10.18;4.53;;;;;;;5.17;100.00;94251.34;5043900;28;20078;-59
2023/05/18 02:07:15;;;;;;;10.03;4.20;;;;;;;5.22;100.00;94247.53;5027368;28;20049;-58
2023/05/18 02:09:43;;;;;;;11.80;4.40;;;;;;;5.19;100.00;94246.31;5028318;28;20499;-60
2023/05/18 02:12:10;;;;;;;8.90;3.90;;;;;;;5.18;100.00;94244.78;5027252;28;20171;-60
2023/05/18 02:14:37;;;;;;;12.13;4.38;;;;;;;5.17;100.00;94249.44;5034121;28;20041;-60
2023/05/18 02:17:05;;;;;;;7.97;4.20;;;;;;;5.18;100.00;94234.66;5027771;28;20042;-59
2023/05/18 02:19:36;;;;;;;9.37;4.13;;;;;;;5.13;100.00;94232.28;5027737;28;20042;-59
2023/05/18 02:22:07;;;;;;;10.35;3.95;;;;;;;5.17;100.00;94235.03;5033727;28;20382;-61
2023/05/18 02:24:34;;;;;;;12.13;4.22;;;;;;;5.15;100.00;94229.97;5050120;28;20063;-59
2023/05/18 02:27:00;;;;;;;9.48;4.32;;;;;;;5.20;100.00;94226.91;5050930;28;20041;-59
2023/05/18 02:29:27;;;;;;;10.75;4.60;;;;;;;5.21;100.00;94227.69;5047284;28;20041;-59
2023/05/18 02:31:54;;;;;;;9.73;4.30;;;;;;;5.17;100.00;94226.88;5051458;28;20045;-61
2023/05/18 02:34:21;;;;;;;7.85;4.18;;;;;;;5.18;100.00;94226.50;5043800;28;20045;-59
2023/05/18 02:36:48;;;;;;;9.32;3.90;;;;;;;5.22;100.00;94226.53;5051885;28;20052;-58
2023/05/18 02:39:15;;;;;;;9.70;4.22;;;;;;;5.17;100.00;94235.84;5031768;28;20038;-58
2023/05/18 02:41:42;;;;;;;11.32;4.70;;;;;;;5.15;100.00;94224.53;5043801;28;20045;-59
2023/05/18 02:44:11;;;;;;;9.10;4.43;;;;;;;5.18;100.00;94225.72;5083041;28;20036;-60
2023/05/18 02:46:37;;;;;;;7.57;3.95;;;;;;;5.20;100.00;94226.13;5097036;28;20120;-59
2023/05/18 02:49:04;;;;;;;9.20;4.63;;;;;;;5.18;100.00;94223.78;5080977;28;20033;-61
2023/05/18 02:51:31;;;;;;;10.27;4.97;;;;;;;5.14;100.00;94220.25;5079620;28;20066;-59
2023/05/18 02:53:58;;;;;;;11.93;4.97;;;;;;;5.16;100.00;94212.50;5077402;28;20043;-61
2023/05/18 02:56:25;;;;;;;8.57;4.20;;;;;;;5.23;100.00;94221.88;5091383;28;20396;-58
2023/05/18 02:58:56;;;;;;;10.40;4.35;;;;;;;5.21;100.00;94233.13;5080911;28;20044;-59
2023/05/18 03:01:26;;;;;;;10.15;4.55;;;;;;;5.20;100.00;94221.47;5057412;28;20043;-60
2023/05/18 03:03:53;;;;;;;10.18;5.00;;;;;;;5.19;100.00;94225.34;5070795;28;20492;-61
2023/05/18 03:06:25;;;;;;;11.82;5.93;;;;;;;5.25;100.00;94225.00;5074087;28;20040;-59
2023/05/18 03:08:55;;;;;;;11.27;5.33;;;;;;;5.23;100.00;94221.88;5073035;28;20036;-60
2023/05/18 03:11:23;;;;;;;9.00;4.45;;;;;;;5.17;100.00;94222.22;5087919;28;20051;-60
2023/05/18 03:13:50;;;;;;;10.57;4.75;;;;;;;5.11;100.00;94210.13;5079105;28;20044;-59
2023/05/18 03:16:17;;;;;;;9.88;4.80;;;;;;;5.15;100.00;94216.38;5077559;28;20693;-61
2023/05/18 03:18:44;;;;;;;11.23;5.10;;;;;;;5.13;100.00;94210.53;5070780;28;20605;-61
2023/05/18 03:21:12;;;;;;;9.50;4.37;;;;;;;5.11;100.00;94212.03;5070330;28;20121;-60
2023/05/18 03:23:39;;;;;;;10.05;4.35;;;;;;;5.08;100.00;94213.56;5080965;28;20137;-59
2023/05/18 03:26:10;;;;;;;11.93;4.53;;;;;;;5.10;100.00;94216.69;5090311;28;20066;-59
2023/05/18 03:28:37;;;;;;;10.43;4.53;;;;;;;5.09;100.00;94215.16;5111108;28;20392;-61
2023/05/18 03:31:04;;;;;;;10.93;4.68;;;;;;;5.08;100.00;94218.25;5111203;28;20383;-59
2023/05/18 03:33:31;;;;;;;9.37;4.80;;;;;;;5.08;100.00;94208.13;5111922;28;20499;-59
2023/05/18 03:36:03;;;;;;;10.40;4.78;;;;;;;5.05;100.00;94213.53;5110557;28;20109;-60
2023/05/18 03:38:29;;;;;;;11.38;4.70;;;;;;;5.03;100.00;94221.28;5103716;28;20476;-59
2023/05/18 03:40:56;;;;;;;12.43;5.10;;;;;;;5.06;100.00;94215.88;5090770;28;20038;-59
2023/05/18 03:43:24;;;;;;;14.52;5.30;;;;;;;5.07;100.00;94222.09;5097418;28;20036;-60
2023/05/18 03:45:52;;;;;;;11.20;4.97;;;;;;;5.05;100.00;94218.97;5110947;28;20046;-60
2023/05/18 03:48:19;;;;;;;11.50;5.05;;;;;;;5.03;100.00;94219.38;5099027;28;20040;-59
2023/05/18 03:50:47;;;;;;;11.50;5.28;;;;;;;5.11;100.00;94220.19;5092224;28;20046;-60
2023/05/18 03:53:17;;;;;;;12.40;4.97;;;;;;;5.14;100.00;94222.19;5087299;28;20052;-61
2023/05/18 03:55:45;;;;;;;10.32;5.07;;;;;;;5.15;100.00;94231.91;5070907;28;20117;-59
2023/05/18 03:58:12;;;;;;;11.77;5.00;;;;;;;5.15;100.00;94234.63;5084945;28;20056;-59
2023/05/18 04:00:39;;;;;;;13.80;5.10;;;;;;;5.24;100.00;94232.38;5090716;28;20353;-61
2023/05/18 04:03:06;;;;;;;10.52;4.97;;;;;;;5.22;100.00;94228.50;5090022;28;20051;-59
2023/05/18 04:05:32;;;;;;;15.93;5.53;;;;;;;5.18;100.00;94223.00;5056433;28;20043;-60
2023/05/18 04:07:59;;;;;;;7.93;4.68;;;;;;;5.32;100.00;94219.66;5080676;28;20048;-59
2023/05/18 04:10:26;;;;;;;11.33;5.17;;;;;;;5.33;100.00;94223.91;5090107;28;20044;-60
2023/05/18 04:12:53;;;;;;;11.73;5.57;;;;;;;5.42;100.00;94223.63;5071780;28;20468;-61
2023/05/18 04:15:20;;;;;;;12.02;5.20;;;;;;;5.45;100.00;94233.75;5072353;28;20079;-60
2023/05/18 04:17:49;;;;;;;11.02;5.70;;;;;;;5.46;100.00;94232.59;5081841;28;20055;-59
2023/05/18 04:20:17;;;;;;;10.20;5.05;;;;;;;5.46;100.00;94227.16;5077792;28;20541;-61
2023/05/18 04:22:46;;;;;;;10.83;4.90;;;;;;;5.51;100.00;94235.75;5077373;28;20043;-59
2023/05/18 04:25:14;;;;;;;10.20;4.65;;;;;;;5.67;100.00;94235.50;5090002;28;20040;-59
2023/05/18 04:27:44;;;;;;;9.93;4.88;;;;;;;5.66;100.00;94233.94;5074346;28;20044;-59
2023/05/18 04:30:12;;;;;;;10.35;5.00;;;;;;;5.74;100.00;94232.06;5075113;28;20065;-59
2023/05/18 04:32:41;;;;;;;10.10;5.00;;;;;;;5.73;100.00;94246.84;5090270;28;20044;-60
2023/05/18 04:35:09;;;;;;;10.60;5.17;;;;;;;5.72;100.00;94243.34;5078694;28;20045;-61
2023/05/18 04:37:39;;;;;;;10.82;5.30;;;;;;;5.75;100.00;94245.28;5072251;28;20067;-60
2023/05/18 04:40:12;;;;;;;9.95;4.60;;;;;;;6.01;100.00;94254.47;5077857;28;20040;-60
2023/05/18 04:42:46;;;;;;;11.15;4.82;;;;;;;5.97;100.00;94243.53;5089346;28;20036;-59
2023/05/18 04:45:19;;;;;;;13.20;5.20;;;;;;;6.22;100.00;94242.16;5084591;28;20036;-60
2023/05/18 04:47:51;;;;;;;11.20;5.00;;;;;;;6.18;100.00;94251.09;5098731;28;20050;-59
2023/05/18 04:50:20;;;;;;;11.45;5.28;;;;;;;6.42;100.00;94245.41;5077457;28;20142;-59
2023/05/18 04:52:51;;;;;;;12.68;4.88;;;;;;;6.29;100.00;94253.13;5069420;28;20390;-59
2023/05/18 04:55:26;;;;;;;10.13;5.07;;;;;;;6.27;100.00;94253.50;5083153;28;20868;-61
2023/05/18 04:57:55;;;;;;;9.90;5.05;;;;;;;6.34;100.00;94244.59;5070893;28;20032;-60
2023/05/18 05:00:24;;;;;;;10.30;5.10;;;;;;;6.62;100.00;94246.69;5089091;28;20560;-61
2023/05/18 05:02:50;;;;;;;10.68;5.40;;;;;;;6.62;100.00;94252.16;5085854;28;20047;-61
2023/05/18 05:05:18;;;;;;;12.32;5.53;;;;;;;6.89;100.00;94244.47;5109081;28;20773;-59
2023/05/18 05:07:44;;;;;;;10.52;5.05;;;;;;;6.99;100.00;94234.78;5108712;28;20043;-59
2023/05/18 05:10:11;;;;;;;10.88;5.03;;;;;;;6.95;100.00;94236.72;5109190;28;21639;-59
2023/05/18 05:12:38;;;;;;;9.10;4.90;;;;;;;7.20;100.00;94234.84;5109714;28;20074;-60
2023/05/18 05:15:05;;;;;;;12.25;5.25;;;;;;;7.23;100.00;94238.75;5090964;28;20700;-61
2023/05/18 05:17:32;;;;;;;12.55;5.13;;;;;;;7.36;100.00;94236.44;5091380;28;20040;-60
2023/05/18 05:19:59;;;;;;;12.23;5.72;;;;;;;7.59;100.00;94236.09;5109055;28;20057;-60
2023/05/18 05:22:26;;;;;;;9.68;5.40;;;;;;;7.76;100.00;94238.03;5094633;28;20036;-59
2023/05/18 05:24:53;;;;;;;9.77;5.33;;;;;;;7.87;100.00;94238.06;5102197;28;20510;-59
2023/05/18 05:27:21;;;;;;;8.90;5.40;;;;;;;8.08;100.00;94236.50;5089263;28;20097;-62
2023/05/18 05:29:49;;;;;;;9.90;5.03;;;;;;;8.24;100.00;94234.13;5076502;28;20047;-60
2023/05/18 05:32:16;;;;;;;11.95;5.60;;;;;;;7.90;100.00;94240.00;5082512;28;20067;-61
2023/05/18 05:34:45;;;;;;;9.73;5.47;;;;;;;8.35;100.00;94242.31;5077372;28;20058;-60
2023/05/18 05:37:13;;;;;;;10.23;5.10;;;;;;;9.24;98.25;94235.81;5094765;28;20052;-60
2023/05/18 05:39:39;;;;;;;9.95;5.45;;;;;;;10.63;86.72;94237.91;5076488;28;20036;-60
2023/05/18 05:42:07;;;;;;;9.50;5.10;;;;;;;12.21;78.01;94233.09;5088328;28;20047;-60
2023/05/18 05:44:34;;;;;;;8.90;4.97;;;;;;;12.92;72.79;94223.56;5079419;28;20048;-62
2023/05/18 05:47:02;;;;;;;9.38;4.97;;;;;;;13.91;68.42;94234.94;5085820;28;20040;-60
2023/05/18 05:49:28;;;;;;;8.40;5.13;;;;;;;13.50;66.73;94234.25;5062967;28;20040;-60
2023/05/18 05:51:55;;;;;;;11.60;5.03;;;;;;;14.81;63.06;94235.50;5067575;28;20039;-62
2023/05/18 05:54:22;;;;;;;9.65;5.30;;;;;;;15.16;59.31;94233.78;5089522;28;20036;-60
2023/05/18 05:56:48;;;;;;;9.63;5.53;;;;;;;15.81;57.04;94229.16;5109146;28;20492;-61
2023/05/18 05:59:15;;;;;;;8.90;5.32;;;;;;;16.17;52.93;94231.59;5107665;28;20048;-63
2023/05/18 06:01:42;;;;;;;9.57;5.23;;;;;;;17.22;50.12;94238.00;5109146;28;20036;-60
2023/05/18 06:04:14;;;;;;;7.45;4.70;;;;;;;16.33;51.24;94225.94;5106218;28;20078;-61
2023/05/18 06:06:42;;;;;;;8.07;4.80;;;;;;;16.23;51.06;94224.28;5089021;28;20036;-60
2023/05/18 06:09:09;;;;;;;8.10;4.97;;;;;;;17.15;49.39;94224.41;5088189;28;20048;-60
2023/05/18 06:11:36;;;;;;;8.88;5.47;;;;;;;16.35;50.13;94225.47;5070839;28;20036;-61
2023/05/18 06:14:03;;;;;;;11.10;6.23;;;;;;;16.12;48.35;94227.41;5087887;28;20043;-60
2023/05/18 06:16:30;;;;;;;8.80;5.15;;;;;;;16.84;48.50;94229.81;5088589;28;20389;-61
2023/05/18 06:18:57;;;;;;;10.73;6.22;;;;;;;15.08;51.22;94235.94;5083890;28;20391;-62
2023/05/18 06:21:24;;;;;;;10.00;5.57;;;;;;;18.33;45.39;94227.50;5080066;28;20534;-62
2023/05/18 06:23:51;;;;;;;7.90;5.10;;;;;;;19.64;42.60;94227.13;5107594;28;20043;-61
2023/05/18 06:26:17;;;;;;;8.53;5.20;;;;;;;19.08;42.41;94220.88;5087648;28;21539;-61
2023/05/18 06:28:44;;;;;;;9.50;4.90;;;;;;;20.43;40.31;94231.84;5103417;28;20070;-62
2023/05/18 06:31:11;;;;;;;7.78;4.80;;;;;;;22.18;36.38;94224.09;5108370;28;20040;-62
2023/05/18 06:33:38;;;;;;;8.02;4.57;;;;;;;22.83;34.96;94222.00;5104471;28;20057;-59
2023/05/18 06:36:05;;;;;;;7.30;4.80;;;;;;;21.87;35.98;94220.56;5103078;28;20035;-60
2023/05/18 06:38:32;;;;;;;8.30;5.10;;;;;;;22.58;35.11;94222.66;5095473;28;20035;-59
2023/05/18 06:40:59;;;;;;;7.55;5.13;;;;;;;21.11;35.52;94228.50;5094035;28;20250;-59
2023/05/18 06:43:27;;;;;;;8.68;4.68;;;;;;;21.12;36.93;94230.03;5087600;28;20047;-61
2023/05/18 06:45:54;;;;;;;8.77;5.60;;;;;;;19.24;38.97;94231.69;5087652;28;20128;-59
2023/05/18 06:48:25;;;;;;;9.30;5.53;;;;;;;17.55;42.62;94232.84;5073611;28;20104;-59
2023/05/18 06:50:52;;;;;;;9.43;5.83;;;;;;;17.81;42.55;94241.00;5090112;28;20066;-59
2023/05/18 06:53:19;;;;;;;9.18;5.00;;;;;;;17.97;43.48;94240.03;5099072;28;20123;-63
2023/05/18 06:55:46;;;;;;;10.00;5.57;;;;;;;18.11;42.32;94233.13;5070185;28;20036;-58
2023/05/18 06:58:13;;;;;;;8.85;5.20;;;;;;;21.60;37.30;94229.19;5087827;28;20040;-59
2023/05/18 07:00:40;;;;;;;9.15;5.47;;;;;;;14.80;48.83;94242.25;5087984;28;20058;-60
2023/05/18 07:03:07;;;;;;;8.10;5.33;;;;;;;19.58;41.58;94234.56;5087495;28;20043;-59
2023/05/18 07:05:35;;;;;;;8.77;5.80;;;;;;;21.15;38.00;94235.44;5088036;28;20030;-60
2023/05/18 07:08:05;;;;;;;8.77;5.32;;;;;;;19.80;40.23;94232.41;5097576;28;20048;-60
2023/05/18 07:10:34;;;;;;;14.07;5.93;;;;;;;16.71;44.70;94246.47;5099159;28;20088;-59
2023/05/18 07:13:01;;;;;;;8.18;5.10;;;;;;;19.42;41.86;94236.47;5093677;28;20089;-59
2023/05/18 07:15:28;;;;;;;7.77;4.97;;;;;;;20.66;39.04;94239.47;5091907;28;20032;-58
2023/05/18 07:17:55;;;;;;;10.98;5.53;;;;;;;20.91;39.29;94231.91;5086691;28;20086;-59
2023/05/18 07:20:22;;;;;;;7.95;4.90;;;;;;;20.28;39.39;94238.13;5101571;28;20351;-60
2023/05/18 07:22:54;;;;;;;11.00;5.40;;;;;;;17.34;43.58;94236.38;5111057;28;20116;-60
2023/05/18 07:25:21;;;;;;;7.72;4.88;;;;;;;18.13;43.79;94244.59;5111891;28;20110;-59
2023/05/18 07:27:50;;;;;;;8.27;5.20;;;;;;;19.07;42.81;94239.53;5111383;28;20092;-62
2023/05/18 07:30:17;;;;;;;8.27;5.05;;;;;;;17.90;45.05;94243.84;5093434;28;20819;-63
2023/05/18 07:32:44;;;;;;;9.45;5.93;;;;;;;16.01;48.63;94240.78;5103678;28;20040;-61
2023/05/18 07:35:11;;;;;;;8.43;5.50;;;;;;;18.40;45.29;94246.66;5111414;28;20031;-62
2023/05/18 07:37:38;;;;;;;9.60;5.80;;;;;;;15.75;48.16;94248.31;5094247;28;20051;-61
2023/05/18 07:40:08;;;;;;;9.73;4.90;;;;;;;18.39;44.63;94238.78;5085714;28;20040;-60
2023/05/18 07:42:36;;;;;;;9.27;4.90;;;;;;;17.29;45.46;94242.53;5089965;28;20120;-60
2023/05/18 07:45:03;;;;;;;9.27;4.82;;;;;;;20.50;40.83;94257.38;5099627;28;20043;-63
2023/05/18 07:47:30;;;;;;;8.10;5.00;;;;;;;18.24;43.46;94241.38;5095072;28;20155;-60
2023/05/18 07:49:57;;;;;;;7.72;4.70;;;;;;;17.62;44.47;94245.66;5101971;28;20047;-62
2023/05/18 07:52:23;;;;;;;9.40;5.10;;;;;;;17.90;44.64;94246.63;5092489;28;20103;-62
2023/05/18 07:54:52;;;;;;;7.72;4.43;;;;;;;21.17;38.90;94229.41;5094750;28;20050;-60
2023/05/18 07:57:19;;;;;;;8.02;4.45;;;;;;;19.88;38.14;94235.59;5071177;28;20050;-59
2023/05/18 07:59:46;;;;;;;9.25;4.75;;;;;;;20.14;38.47;94244.34;5097402;28;20040;-58
2023/05/18 08:02:15;;;;;;;7.38;4.60;;;;;;;15.18;46.53;94254.22;5090934;28;20043;-61
2023/05/18 08:04:42;;;;;;;8.97;4.97;;;;;;;16.24;45.32;94247.19;5097878;28;20040;-59
2023/05/18 08:07:09;;;;;;;14.10;5.25;;;;;;;15.18;47.28;94256.22;5109940;28;20036;-61
2023/05/18 08:09:36;;;;;;;7.55;4.65;;;;;;;15.65;47.15;94254.91;5110085;28;20395;-61
2023/05/18 08:12:03;;;;;;;9.30;4.63;;;;;;;18.35;41.34;94250.03;5091726;28;20059;-59
2023/05/18 08:14:30;;;;;;;8.85;6.18;;;;;;;15.67;45.55;94258.00;5077358;28;20032;-63
2023/05/18 08:16:56;;;;;;;9.00;4.60;;;;;;;17.77;42.81;94263.34;5078837;28;20043;-59
2023/05/18 08:19:24;;;;;;;8.68;4.28;;;;;;;20.83;36.63;94273.34;5095720;28;20036;-60
2023/05/18 08:21:51;;;;;;;6.80;4.38;;;;;;;18.58;39.40;94264.63;5089126;28;20052;-58
2023/05/18 08:24:18;;;;;;;8.48;4.25;;;;;;;18.93;38.06;94257.63;5076075;28;20661;-58
2023/05/18 08:26:44;;;;;;;8.38;4.35;;;;;;;16.96;42.12;94254.75;5069361;28;20048;-61
2023/05/18 08:29:11;;;;;;;6.40;3.87;;;;;;;20.78;35.96;94262.81;5068325;28;20074;-59
2023/05/18 08:31:39;;;;;;;8.73;4.28;;;;;;;21.93;33.70;94254.16;5076613;28;20044;-59
2023/05/18 08:34:07;;;;;;;8.32;4.40;;;;;;;17.55;39.72;94246.72;5071991;28;20170;-59
2023/05/18 08:36:34;;;;;;;8.50;4.60;;;;;;;17.01;40.46;94247.09;5080024;28;20036;-59
2023/05/18 08:39:04;;;;;;;10.15;4.57;;;;;;;18.79;38.30;94260.19;5086852;28;20040;-58
2023/05/18 08:41:40;;;;;;;8.40;4.13;;;;;;;19.68;36.98;94247.22;5069271;28;20063;-61
2023/05/18 08:44:33;;;;;;;7.25;4.10;;;;;;;22.25;33.95;94237.69;5070931;28;20044;-58
2023/05/18 08:47:02;;;;;;;9.38;4.78;;;;;;;19.18;38.46;94241.88;5078957;28;20074;-60
2023/05/18 08:49:31;;;;;;;8.25;4.32;;;;;;;19.47;35.50;94248.97;5082514;28;20071;-60
2023/05/18 08:52:03;;;;;;;7.15;4.13;;;;;;;19.85;36.33;94242.91;5071438;28;20051;-60
2023/05/18 08:54:30;;;;;;;10.73;4.30;;;;;;;18.91;37.55;94254.53;5078120;28;20044;-59
2023/05/18 08:56:58;;;;;;;7.20;4.35;;;;;;;17.28;40.92;94247.28;5088285;28;20044;-59
2023/05/18 08:59:30;;;;;;;6.72;3.88;;;;;;;21.83;34.31;94241.53;5089022;28;20086;-59
2023/05/18 09:01:57;;;;;;;9.23;5.05;;;;;;;20.46;34.50;94248.38;5073213;28;20055;-60
2023/05/18 09:04:25;;;;;;;8.52;4.47;;;;;;;17.90;37.33;94254.94;5078719;28;20104;-59
2023/05/18 09:06:53;;;;;;;8.20;4.50;;;;;;;19.20;36.94;94242.19;5087066;28;20048;-60
2023/05/18 09:09:22;;;;;;;8.73;4.40;;;;;;;19.44;37.48;94241.56;5068250;28;20044;-59
2023/05/18 09:11:50;;;;;;;7.40;4.22;;;;;;;18.22;37.44;94239.03;5074835;28;20040;-59
2023/05/18 09:14:17;;;;;;;8.18;4.28;;;;;;;18.56;38.52;94242.84;5087640;28;21751;-59
2023/05/18 09:16:44;;;;;;;7.43;3.90;;;;;;;22.19;33.33;94229.16;5088296;28;20036;-59
2023/05/18 09:19:11;;;;;;;7.83;4.20;;;;;;;23.99;30.39;94229.97;5088206;28;20048;-60
2023/05/18 09:21:38;;;;;;;7.45;4.15;;;;;;;18.23;39.20;94248.13;5088111;28;20036;-61
2023/05/18 09:24:05;;;;;;;6.72;4.20;;;;;;;21.37;33.69;94236.34;5088155;28;20051;-60
2023/05/18 09:26:32;;;;;;;7.55;4.20;;;;;;;18.95;36.51;94257.16;5088833;28;20689;-61
2023/05/18 09:28:59;;;;;;;6.15;3.92;;;;;;;20.60;35.52;94232.25;5087849;28;20050;-60
2023/05/18 09:31:26;;;;;;;7.83;4.37;;;;;;;19.97;35.60;94237.59;5088465;28;20028;-60
2023/05/18 09:33:53;;;;;;;7.45;4.07;;;;;;;20.19;35.22;94229.03;5087480;28;20028;-60
2023/05/18 09:36:25;;;;;;;10.20;4.20;;;;;;;20.16;35.41;94239.06;5094467;28;20040;-60
2023/05/18 09:38:52;;;;;;;8.65;4.40;;;;;;;19.84;36.26;94244.16;5096326;28;20100;-59
2023/05/18 09:41:19;;;;;;;7.70;4.32;;;;;;;22.01;33.44;94234.97;5082472;28;20028;-60
2023/05/18 09:43:50;;;;;;;7.93;4.00;;;;;;;20.57;34.74;94242.31;5108070;28;20048;-60
2023/05/18 09:46:19;;;;;;;7.15;4.13;;;;;;;19.52;37.35;94245.56;5105214;28;20155;-58
2023/05/18 09:48:50;;;;;;;7.28;4.57;;;;;;;18.93;37.88;94240.94;5072013;28;20035;-58
2023/05/18 09:51:17;;;;;;;8.13;4.32;;;;;;;18.96;37.99;94242.03;5087930;28;20031;-60
2023/05/18 09:53:55;;;;;;;7.80;4.60;;;;;;;19.50;37.09;94253.63;5107718;28;20109;-60
2023/05/18 09:56:25;;;;;;;7.50;4.00;;;;;;;20.98;35.79;94230.78;5057902;28;20040;-61
2023/05/18 09:58:53;;;;;;;7.60;4.55;;;;;;;20.41;36.82;94237.91;5067528;28;20036;-60
2023/05/18 10:01:19;;;;;;;8.90;4.55;;;;;;;17.21;41.49;94253.09;5075955;28;20040;-62
2023/05/18 10:03:48;;;;;;;8.63;4.60;;;;;;;19.90;38.08;94245.06;5087759;28;20036;-59
2023/05/18 10:06:19;;;;;;;8.45;4.70;;;;;;;18.28;39.48;94248.31;5069579;28;20040;-60
2023/05/18 10:08:46;;;;;;;7.63;4.60;;;;;;;16.88;43.16;94241.56;5087957;28;20120;-63
2023/05/18 10:11:17;;;;;;;7.70;4.35;;;;;;;18.57;39.98;94236.03;5087432;28;20058;-60
2023/05/18 10:13:45;;;;;;;8.93;4.40;;;;;;;16.48;43.03;94247.63;5083575;28;20112;-61
2023/05/18 10:16:14;;;;;;;10.13;5.07;;;;;;;13.85;48.83;94265.00;5086534;28;20048;-59
2023/05/18 10:18:41;;;;;;;8.90;5.00;;;;;;;16.59;44.17;94236.97;5077809;28;20477;-59
2023/05/18 10:21:11;;;;;;;9.60;4.60;;;;;;;18.05;41.77;94246.84;5075370;28;20040;-59
2023/05/18 10:23:39;;;;;;;7.95;4.07;;;;;;;18.10;40.10;94248.25;5072454;28;20427;-59
2023/05/18 10:26:08;;;;;;;8.45;4.10;;;;;;;19.30;39.35;94231.84;5076442;28;20039;-60
2023/05/18 10:28:46;;;;;;;11.40;4.85;;;;;;;17.64;41.14;94240.44;5081062;28;20039;-60
2023/05/18 10:31:15;;;;;;;7.28;4.20;;;;;;;20.25;36.89;94252.97;5075963;28;20044;-60
2023/05/18 10:33:43;;;;;;;6.83;4.10;;;;;;;20.95;35.28;94236.06;5081386;28;20056;-60
2023/05/18 10:36:10;;;;;;;7.90;4.30;;;;;;;18.54;38.34;94234.19;5081688;28;20037;-60
2023/05/18 10:38:38;;;;;;;6.35;4.10;;;;;;;17.33;40.50;94232.84;5081155;28;20054;-60
2023/05/18 10:41:08;;;;;;;6.95;3.85;;;;;;;16.15;42.58;94239.56;5088023;28;20043;-59
2023/05/18 10:43:35;;;;;;;5.78;3.92;;;;;;;17.93;39.89;94236.63;5087800;28;20047;-59
2023/05/18 10:46:06;;;;;;;6.53;3.70;;;;;;;17.87;40.51;94241.22;5088630;28;20047;-59
2023/05/18 10:48:37;;;;;;;8.93;4.00;;;;;;;18.39;38.94;94233.22;5086875;28;20046;-59
2023/05/18 10:51:06;;;;;;;7.70;4.00;;;;;;;18.40;40.13;94240.34;5091441;28;20044;-58
2023/05/18 10:53:35;;;;;;;8.38;4.50;;;;;;;16.62;43.42;94238.84;5091857;28;20050;-59
2023/05/18 10:56:02;;;;;;;6.72;4.40;;;;;;;16.09;44.55;94246.88;5091551;28;20040;-58
2023/05/18 10:58:30;;;;;;;8.37;4.40;;;;;;;16.49;43.94;94244.41;5091587;28;20065;-59
2023/05/18 11:01:00;;;;;;;7.28;4.28;;;;;;;17.61;42.06;94240.59;5073216;28;20066;-59
2023/05/18 11:03:27;;;;;;;6.95;4.50;;;;;;;17.39;41.58;94229.50;5057027;28;20480;-59
2023/05/18 11:06:11;;;;;;;7.05;3.78;;;;;;;18.31;40.81;94235.50;5091051;28;20044;-60
2023/05/18 11:08:43;;;;;;;8.05;3.97;;;;;;;19.24;40.26;94223.31;5091742;28;20345;-59
2023/05/18 11:11:10;;;;;;;8.23;4.10;;;;;;;16.58;42.73;94225.13;5091137;28;20044;-60
2023/05/18 11:13:43;;;;;;;8.48;4.30;;;;;;;15.43;45.31;94244.44;5085754;28;20060;-60
2023/05/18 11:16:10;;;;;;;7.68;4.07;;;;;;;15.24;44.96;94248.19;5090954;28;20067;-58
2023/05/18 11:18:48;;;;;;;7.07;4.28;;;;;;;14.81;45.79;94243.78;5091580;28;20050;-58
2023/05/18 11:21:19;;;;;;;6.85;4.60;;;;;;;15.60;44.60;94239.63;5090748;28;20036;-58
2023/05/18 11:24:15;;;;;;;8.97;4.13;;;;;;;15.11;46.94;94239.81;5091600;28;20063;-58
2023/05/18 11:26:44;;;;;;;7.30;4.22;;;;;;;15.51;46.77;94236.72;5090461;28;20531;-59
2023/05/18 11:29:22;;;;;;;8.27;4.63;;;;;;;15.66;48.09;94240.63;5103644;28;20048;-60
2023/05/18 11:31:53;;;;;;;8.43;4.00;;;;;;;16.93;44.01;94227.91;5095975;28;20357;-58
2023/05/18 11:34:36;;;;;;;9.05;4.38;;;;;;;15.28;45.39;94248.84;5098980;28;20514;-59
2023/05/18 11:37:08;;;;;;;6.67;4.10;;;;;;;14.61;47.48;94241.16;5093378;28;20054;-63
2023/05/18 11:39:36;;;;;;;7.75;3.80;;;;;;;15.31;46.64;94217.53;5101761;28;20056;-62